Date,TemperatureHighF,TemperatureAvgF,TemperatureLowF,DewpointHighF,DewpointAvgF,DewpointLowF,HumidityHigh,HumidityAvg,HumidityLow,PressureMaxIn,PressureMinIn,WindSpeedMaxMPH,WindSpeedAvgMPH,GustSpeedMaxMPH,PrecipitationSumIn
2012-1-1,86.0,69.8,60.8,53.4,-7.9,-38.2,58,12,1,30.16,30.03,5,1,0,0.00
2012-1-2,86.0,62.8,51.8,55.6,27.3,-39.3,95,43,1,30.20,30.06,8,2,0,0.00
2012-1-3,78.8,59.3,44.6,55.3,38.6,-29.6,79,49,1,30.20,30.08,7,1,0,0.00
2012-1-4,89.6,66.7,51.8,54.7,20.8,-30.6,79,33,1,30.24,30.08,4,1,0,0.00
2012-1-5,86.0,62.6,48.2,46.8,33.6,-28.5,74,42,1,30.16,29.95,10,2,0,0.00
2012-1-6,69.8,53.0,42.8,53.9,43.6,34.0,98,72,40,30.01,29.90,9,1,0,0.00
2012-1-7,62.6,52.0,35.6,54.6,33.7,-40.4,98,73,1,30.05,29.92,6,2,0,0.00
2012-1-8,73.4,61.3,50.0,27.2,-14.4,-43.7,41,11,1,30.18,30.04,8,2,0,0.00
2012-1-9,80.6,60.7,44.6,46.4,11.0,-36.0,78,32,1,30.18,30.04,7,2,0,0.00
2012-1-10,69.8,51.6,39.2,52.1,39.9,32.0,96,68,28,30.16,30.00,8,1,0,0.00
2012-1-11,66.2,51.6,37.4,52.3,41.3,23.8,95,72,23,30.05,29.93,7,1,0,0.00
2012-1-12,77.0,65.5,57.2,26.2,-20.7,-41.5,24,6,1,30.05,29.91,9,2,0,0.00
2012-1-13,78.8,64.7,53.6,-29.6,-38.0,-44.7,1,1,1,30.14,30.03,6,2,0,0.00
2012-1-14,73.4,55.3,41.0,40.4,5.3,-45.8,67,26,1,30.15,30.05,6,1,0,0.00
2012-1-15,68.0,52.2,39.2,50.7,36.8,22.9,95,59,25,30.12,30.01,6,1,0,0.00
2012-1-16,60.8,49.9,41.0,49.8,45.1,39.9,98,85,62,30.21,30.04,8,1,0,0.00
2012-1-17,60.8,46.3,37.4,46.8,41.5,36.9,98,85,56,30.31,30.18,8,1,0,0.00
2012-1-18,64.4,46.9,33.8,46.8,39.9,32.3,98,79,46,30.31,30.13,7,1,0,0.00
2012-1-19,64.4,50.4,35.6,51.1,43.9,34.3,98,81,50,30.15,29.99,10,2,0,0.00
2012-1-20,62.6,51.0,39.2,54.6,47.6,38.7,98,89,65,30.11,29.99,9,1,0,0.05
2012-1-21,53.6,52.6,51.8,53.0,52.0,51.3,98,98,98,30.04,29.94,8,2,0,0.89
2012-1-22,64.4,54.3,46.4,52.8,48.9,45.9,98,84,55,30.16,30.09,6,2,0,0.00
2012-1-23,53.6,50.4,44.6,53.0,49.8,44.1,98,98,96,30.09,29.84,3,0,0,0.50
2012-1-24,71.6,52.8,39.2,54.2,45.7,38.7,98,80,41,30.21,30.03,7,1,0,0.01
2012-1-25,84.2,65.4,51.8,50.2,46.1,41.5,80,54,24,30.11,30.05,2,0,0,0.00
2012-1-26,82.4,61.0,46.4,57.9,50.9,43.6,98,74,30,30.11,29.93,8,1,0,0.00
2012-1-27,77.0,62.3,46.4,50.2,34.3,-39.3,98,50,1,30.11,29.93,8,2,0,0.00
2012-1-28,77.0,65.4,59.0,12.9,-35.5,-41.5,15,1,1,30.21,30.10,10,3,0,0.00
2012-1-29,80.6,63.5,46.4,37.4,-16.5,-41.5,63,15,1,30.20,30.03,8,2,0,0.00
2012-1-30,71.6,52.6,39.2,51.8,39.1,18.5,98,65,14,30.04,29.88,7,1,0,0.00
2012-1-31,66.2,49.4,37.4,52.3,45.2,36.9,98,87,55,30.13,29.96,9,1,0,0.00
2012-2-1,68.0,51.9,42.8,54.8,47.5,42.3,98,86,55,30.15,30.00,7,1,0,0.00
2012-2-2,69.8,52.8,37.4,55.7,43.7,17.2,98,76,22,30.07,29.83,8,2,0,0.00
2012-2-3,71.6,60.5,53.6,23.7,2.5,-38.2,31,16,1,30.02,29.92,11,2,0,0.00
2012-2-4,73.4,60.6,50.0,32.2,26.4,13.5,37,28,10,30.06,29.94,6,2,0,0.00
2012-2-5,75.2,61.0,48.2,42.9,23.1,-32.8,78,34,1,30.05,29.91,7,2,0,0.00
2012-2-6,73.4,60.4,44.6,40.9,27.7,19.6,83,31,13,30.00,29.85,5,1,0,0.00
2012-2-7,68.0,57.4,51.8,52.2,45.4,31.2,89,65,37,29.93,29.80,7,1,0,0.00
2012-2-8,78.8,65.3,51.8,45.4,41.1,35.9,75,44,23,30.14,29.95,8,2,0,0.00
2012-2-9,80.6,63.6,46.4,49.1,40.5,-28.5,85,48,1,30.16,30.02,10,2,0,0.00
2012-2-10,71.6,55.1,41.0,56.2,47.0,37.1,98,76,43,30.15,30.01,8,2,0,0.00
2012-2-11,64.4,54.2,44.6,55.6,50.5,44.1,98,88,65,30.03,29.85,9,2,0,0.00
2012-2-12,64.4,51.6,39.2,53.4,47.4,38.7,98,87,65,30.00,29.89,9,2,0,0.00
2012-2-13,60.8,51.1,41.0,51.9,44.7,37.9,98,81,48,30.00,29.81,9,2,0,0.00
2012-2-14,64.4,47.2,35.6,48.7,40.6,35.1,98,81,44,30.06,29.89,9,2,0,0.00
2012-2-15,59.0,45.4,35.6,52.2,39.2,32.4,98,81,40,30.08,29.85,6,1,0,0.02
2012-2-16,73.4,50.7,33.8,39.5,34.4,29.6,93,61,21,30.15,30.00,7,2,0,0.00
2012-2-17,71.6,52.1,39.2,46.4,35.8,-33.9,84,60,1,30.17,30.03,6,1,0,0.00
2012-2-18,66.2,48.6,35.6,53.1,43.0,33.3,98,83,52,30.13,29.98,9,2,0,0.00
2012-2-19,62.6,49.0,37.4,50.6,44.6,36.9,98,86,59,30.07,29.93,9,2,0,0.00
2012-2-20,62.6,48.3,37.4,51.1,44.1,36.9,98,87,60,30.10,29.99,7,1,0,0.00
2012-2-21,78.8,55.1,35.6,47.3,29.0,-32.8,98,62,1,30.14,30.02,7,1,0,0.00
2012-2-22,80.6,60.9,46.4,54.4,44.0,34.7,83,57,22,30.14,29.86,7,2,0,0.00
2012-2-23,77.0,57.3,41.0,55.2,44.2,34.1,90,64,36,29.89,29.72,7,2,0,0.00
2012-2-24,68.0,53.5,41.0,58.6,49.7,40.5,98,88,69,30.12,29.89,8,2,0,0.00
2012-2-25,64.4,53.6,41.0,54.0,50.1,40.5,98,89,64,30.13,29.90,8,1,0,0.00
2012-2-26,64.4,48.5,33.8,53.2,44.5,33.3,98,88,61,29.94,29.81,8,2,0,0.00
2012-2-27,55.4,48.2,37.4,50.4,43.8,35.0,98,85,68,29.90,29.75,8,2,0,0.00
2012-2-28,60.8,44.6,32.0,42.0,37.1,31.5,98,78,49,30.26,29.91,8,1,0,0.00
2012-2-29,62.6,48.5,35.6,51.4,44.0,34.3,98,86,57,30.27,30.12,14,3,0,0.00
2012-3-1,62.6,50.9,41.0,49.8,44.8,40.5,98,82,48,30.17,29.99,8,2,0,0.00
2012-3-2,71.6,55.7,35.6,40.5,-5.4,-45.8,98,35,1,30.26,30.06,10,2,0,0.00
2012-3-3,84.2,60.1,41.0,39.6,0.6,-46.9,65,24,1,30.25,30.11,10,2,0,0.00
2012-3-4,91.4,68.3,51.8,40.9,2.3,-41.5,56,19,1,30.15,29.91,7,1,0,0.00
2012-3-5,78.8,60.0,42.8,52.8,41.9,32.6,98,56,19,29.97,29.85,7,2,0,0.00
2012-3-6,62.6,49.7,37.4,52.5,43.7,35.0,98,82,53,29.92,29.69,10,2,0,0.00
2012-3-7,68.0,47.1,32.0,35.3,19.3,-40.4,98,52,1,30.15,29.84,8,2,0,0.00
2012-3-8,80.6,56.0,33.8,35.4,5.5,-39.3,84,35,1,30.25,30.14,7,2,0,0.00
2012-3-9,87.8,65.6,42.8,37.8,1.2,-43.7,55,20,1,30.24,29.97,8,2,0,0.00
2012-3-10,71.6,55.2,41.0,50.3,39.4,21.5,98,60,15,30.00,29.89,8,2,0,0.00
2012-3-11,64.4,49.5,39.2,52.8,45.5,38.7,98,87,64,30.04,29.94,7,1,0,0.00
2012-3-12,64.4,50.7,39.2,52.0,45.9,38.7,98,85,62,30.06,29.92,9,2,0,0.00
2012-3-13,64.4,51.3,41.0,52.8,46.9,40.5,98,86,63,30.07,29.99,10,2,0,0.00
2012-3-14,64.4,52.4,41.0,53.9,48.4,40.5,98,87,62,30.14,30.04,12,2,0,0.00
2012-3-15,64.4,54.6,44.6,55.9,51.7,44.1,98,90,72,30.13,29.99,9,2,0,0.00
2012-3-16,59.0,54.3,51.8,56.7,53.2,51.3,98,96,89,30.06,29.88,6,2,0,0.01
2012-3-17,53.6,50.2,41.0,53.0,48.6,40.5,98,95,75,29.88,29.60,17,4,0,0.92
2012-3-18,59.0,46.1,35.6,46.8,40.3,34.7,98,82,59,29.91,29.65,12,3,0,0.03
2012-3-19,60.8,47.5,35.6,45.4,39.3,33.3,98,77,43,30.02,29.88,8,2,0,0.00
2012-3-20,66.2,53.5,35.6,47.3,42.4,35.1,98,70,37,30.11,30.03,9,2,0,0.00
2012-3-21,73.4,55.9,39.2,49.7,44.4,38.7,98,70,37,30.09,29.91,8,2,0,0.00
2012-3-22,66.2,54.0,41.0,55.9,49.1,40.5,98,85,61,29.94,29.82,9,2,0,0.00
2012-3-23,64.4,54.7,44.6,56.3,51.7,44.1,98,90,74,30.02,29.93,7,1,0,0.00
2012-3-24,68.0,51.5,39.2,55.2,47.4,38.7,98,88,52,29.98,29.85,8,2,0,0.00
2012-3-25,53.6,49.9,44.6,53.0,49.0,44.1,98,97,88,29.92,29.74,11,1,0,1.50
2012-3-26,64.4,49.2,39.2,55.8,46.1,38.7,98,90,66,30.09,29.91,9,1,0,0.01
2012-3-27,64.4,53.6,41.0,51.4,44.6,-99.9,98,76,53,30.09,30.00,8,2,0,0.00
2012-3-28,64.4,52.8,41.0,58.0,49.9,40.5,98,90,69,30.09,29.97,8,2,0,0.00
2012-3-29,64.4,55.7,48.2,58.8,53.8,47.7,98,93,79,30.04,29.93,9,1,0,0.00
2012-3-30,64.4,52.6,44.6,58.1,50.7,44.1,98,94,78,29.98,29.90,10,2,0,0.00
2012-3-31,62.6,53.8,46.4,57.7,52.5,45.0,98,95,79,30.00,29.91,8,2,0,0.13
2012-4-1,71.6,52.8,39.2,51.3,42.4,35.2,98,73,28,30.03,29.93,6,2,0,0.00
2012-4-2,78.8,58.9,41.0,44.3,37.3,-17.7,91,54,2,30.04,29.82,8,2,0,0.00
2012-4-3,73.4,56.7,42.8,53.1,44.8,38.9,93,67,40,29.97,29.84,9,2,0,0.00
2012-4-4,71.6,56.7,44.6,55.1,49.0,43.5,98,79,48,29.95,29.80,9,2,0,0.00
2012-4-5,68.0,53.0,41.0,49.7,44.1,40.2,98,76,40,30.01,29.83,11,2,0,0.00
2012-4-6,75.2,54.1,37.4,40.5,24.7,-34.9,98,51,1,30.10,29.96,10,2,0,0.00
2012-4-7,87.8,63.4,42.8,41.7,5.6,-44.7,76,24,1,30.03,29.92,8,2,0,0.00
2012-4-8,77.0,57.7,41.0,51.5,38.6,30.5,87,54,20,30.00,29.90,8,2,0,0.00
2012-4-9,73.4,54.2,37.4,51.3,42.5,33.6,98,69,36,29.98,29.86,9,2,0,0.00
2012-4-10,69.8,52.0,41.0,53.1,47.1,40.5,98,85,35,29.93,29.79,11,2,0,0.17
2012-4-11,62.6,54.3,48.2,55.3,51.1,47.7,98,90,65,30.09,29.80,10,3,0,0.80
2012-4-12,62.6,53.3,44.6,54.2,50.4,44.1,98,90,71,30.14,30.02,10,3,0,0.00
2012-4-13,55.4,51.4,44.6,53.1,49.6,41.0,98,94,83,30.03,29.67,10,4,0,0.85
2012-4-14,62.6,52.3,42.8,49.2,44.7,39.8,98,77,52,30.04,29.76,13,3,0,0.00
2012-4-15,66.2,53.2,41.0,54.1,47.5,40.5,98,83,57,30.13,30.05,8,2,0,0.00
2012-4-16,73.4,58.0,42.8,58.8,50.5,42.3,98,79,46,30.12,30.02,8,2,0,0.00
2012-4-17,78.8,61.4,44.6,58.6,52.3,44.1,98,76,45,30.03,29.88,7,2,0,0.00
2012-4-18,75.2,60.9,46.4,60.0,54.0,45.9,98,80,54,29.95,29.83,8,2,0,0.00
2012-4-19,71.6,60.4,48.2,61.7,55.7,47.7,98,86,67,29.92,29.80,10,2,0,0.00
2012-4-20,77.0,61.9,50.0,65.6,57.2,49.5,98,86,65,29.93,29.80,9,2,0,0.00
2012-4-21,73.4,60.2,53.6,64.6,56.7,53.0,98,89,69,29.93,29.77,9,2,0,0.00
2012-4-22,68.0,57.4,53.6,61.9,55.7,53.0,98,94,80,29.94,29.87,9,2,0,0.00
2012-4-23,60.8,56.3,53.6,58.4,54.8,53.0,98,95,87,30.01,29.93,5,1,0,0.02
2012-4-24,69.8,59.3,50.0,58.3,54.2,49.5,98,84,64,30.04,29.88,10,2,0,0.00
2012-4-25,86.0,62.7,53.6,64.0,56.9,52.2,98,84,44,30.00,29.64,10,2,0,0.02
2012-4-26,68.0,58.9,53.6,62.6,57.0,53.0,98,94,79,30.02,29.80,9,2,0,0.13
2012-4-27,69.8,58.1,44.6,57.6,52.0,44.1,98,82,56,30.05,29.89,10,2,0,0.00
2012-4-28,77.0,60.8,44.6,60.1,53.2,44.1,98,79,50,29.89,29.69,9,2,0,0.00
2012-4-29,77.0,61.2,48.2,63.0,56.3,47.7,98,85,60,29.90,29.76,7,2,0,0.00
2012-4-30,68.0,59.6,55.4,61.6,57.6,54.8,98,94,80,29.93,29.87,9,2,0,0.00
2012-5-1,55.4,55.4,55.4,54.8,54.8,54.8,98,98,98,29.91,29.87,2,0,0,0.02
2012-5-2,68.0,61.2,55.4,59.8,56.0,52.5,93,84,75,29.94,29.86,6,3,0,0.00
2012-5-3,68.0,58.4,50.0,58.0,54.2,49.5,98,87,69,30.01,29.93,8,2,0,0.00
2012-5-4,69.8,59.5,44.6,60.0,53.9,44.1,98,83,66,30.02,29.97,9,3,0,0.00
2012-5-5,73.4,59.9,44.6,60.0,52.9,44.1,98,80,53,29.98,29.85,9,2,0,0.00
2012-5-6,73.4,59.2,46.4,62.2,55.0,45.9,98,87,66,29.93,29.86,11,2,0,0.00
2012-5-7,73.4,60.5,50.0,63.4,56.5,49.5,98,88,69,29.94,29.79,8,2,0,0.00
2012-5-8,78.8,64.3,50.0,63.0,56.8,49.5,98,80,52,29.87,29.74,9,3,0,0.00
2012-5-9,80.6,68.3,53.6,62.9,58.1,53.0,98,73,50,29.80,29.74,10,3,0,0.00
2012-5-10,75.2,60.3,50.0,64.3,56.9,49.5,98,89,69,29.87,29.78,10,2,0,0.00
2012-5-11,73.4,61.0,51.8,61.8,56.8,51.3,98,87,65,29.98,29.84,10,2,0,0.00
2012-5-12,69.8,59.0,51.8,61.9,56.2,51.3,98,91,75,30.03,29.94,8,2,0,0.00
2012-5-13,68.0,58.9,50.0,60.5,55.6,49.5,98,90,74,30.04,29.94,9,3,0,0.00
2012-5-14,73.4,59.9,44.6,60.5,53.3,44.1,98,81,51,30.02,29.87,9,3,0,0.00
2012-5-15,77.0,60.5,44.6,59.4,53.5,44.1,98,81,50,29.93,29.78,9,2,0,0.00
2012-5-16,78.8,63.7,48.2,62.3,56.3,47.7,98,79,54,29.85,29.71,8,2,0,0.00
2012-5-17,73.4,60.7,50.0,63.8,56.1,49.5,98,86,63,29.80,29.70,10,3,0,0.00
2012-5-18,73.4,59.5,44.6,60.1,52.7,44.1,98,80,55,29.85,29.77,9,2,0,0.00
2012-5-19,73.4,60.5,46.4,61.7,55.1,45.9,98,84,63,29.88,29.77,10,2,0,0.00
2012-5-20,78.8,62.0,48.2,65.6,57.1,47.7,98,85,60,29.88,29.75,9,2,0,0.00
2012-5-21,78.8,63.3,50.0,63.0,57.3,49.5,98,83,58,29.88,29.80,10,2,0,0.00
2012-5-22,80.6,64.6,51.8,63.9,58.1,51.3,98,82,54,29.86,29.68,11,2,0,0.00
2012-5-23,78.8,61.7,53.6,62.3,57.0,53.0,98,87,53,29.76,29.63,8,2,0,0.00
2012-5-25,69.8,61.0,50.0,54.9,49.9,45.4,88,68,50,29.76,29.61,9,4,0,0.00
2012-5-26,68.0,55.5,42.8,54.6,48.8,42.3,98,80,55,30.00,29.77,10,3,0,0.00
2012-5-27,71.6,58.8,44.6,57.8,51.3,44.1,98,78,54,30.00,29.83,10,2,0,0.00
2012-5-28,80.6,63.8,46.4,60.6,53.2,45.9,98,72,40,29.91,29.81,9,2,0,0.00
2012-5-29,77.0,62.5,46.4,61.1,54.4,45.9,98,77,53,29.94,29.83,9,3,0,0.00
2012-5-30,75.2,60.8,48.2,61.3,54.9,47.7,98,83,59,29.98,29.86,9,2,0,0.00
2012-5-31,77.0,63.3,50.0,64.8,57.0,49.5,98,82,61,29.92,29.68,8,2,0,0.00
2012-6-1,77.0,61.5,51.8,66.9,57.8,51.3,98,89,69,29.80,29.70,9,3,0,0.01
2012-6-3,73.4,66.1,59.0,65.0,61.6,58.4,98,86,75,29.88,29.74,9,3,0,0.01
2012-6-4,66.2,60.7,55.4,61.4,59.0,54.8,98,94,82,29.95,29.83,7,2,0,0.00
2012-6-5,73.4,62.9,51.8,61.6,54.0,49.1,98,76,43,29.92,29.77,10,3,0,0.00
2012-6-6,82.4,64.4,44.6,56.2,49.5,43.0,98,65,31,29.84,29.64,10,3,0,0.00
2012-6-7,80.6,65.3,46.4,60.7,54.0,45.9,98,71,43,29.81,29.68,10,2,0,0.00
2012-6-8,77.0,63.4,50.0,63.9,57.7,49.5,98,83,62,29.81,29.69,10,3,0,0.00
2012-6-9,71.6,62.3,53.6,62.5,58.5,53.0,98,88,69,29.79,29.69,10,2,0,0.00
2012-6-10,75.2,62.7,50.0,63.0,58.1,49.5,98,86,65,29.87,29.76,10,2,0,0.00
2012-6-11,75.2,65.2,60.8,63.9,60.6,58.8,98,86,66,29.93,29.83,9,2,0,0.00
2012-6-12,73.4,64.5,55.4,64.6,60.9,54.8,98,89,71,29.92,29.75,9,2,0,0.00
2012-6-13,71.6,61.9,55.4,63.7,59.3,54.8,98,92,76,29.83,29.69,9,2,0,0.00
2012-6-14,73.4,64.0,57.2,64.2,60.0,56.6,98,88,69,29.80,29.68,11,3,0,0.00
2012-6-15,73.4,63.0,59.0,65.0,59.9,57.8,98,90,73,29.79,29.70,10,2,0,0.00
2012-6-16,73.4,64.7,59.0,63.8,60.5,57.6,98,87,71,29.83,29.69,8,3,0,0.00
2012-6-17,78.8,65.6,59.0,66.5,61.7,58.4,98,88,66,29.87,29.74,8,3,0,0.00
2012-6-18,71.6,62.4,59.0,63.6,60.0,58.4,98,92,74,29.88,29.73,9,3,0,0.00
2012-6-19,73.4,61.9,53.6,63.6,58.7,53.0,98,90,69,29.86,29.69,9,2,0,0.03
2012-6-20,73.4,63.7,53.6,64.6,59.5,53.0,98,87,69,29.82,29.68,9,2,0,0.00
2012-6-21,73.4,62.6,55.4,63.6,59.5,54.8,98,90,71,29.87,29.77,8,2,0,0.00
2012-6-22,73.4,61.7,51.8,63.4,57.8,51.3,98,88,65,29.88,29.69,10,2,0,0.00
2012-6-23,73.4,61.9,50.0,62.6,57.1,49.5,98,86,65,29.82,29.69,11,3,0,0.00
2012-6-24,77.0,63.2,48.2,61.6,55.7,47.7,98,79,53,29.93,29.83,10,3,0,0.00
2012-6-25,77.0,62.7,46.4,60.3,53.7,45.9,98,76,50,29.99,29.81,9,3,0,0.00
2012-9-10,66.2,59.3,64.4,55.7,42.0,-99.9,73,65,68,29.95,29.92,0,-83,0,0.00
2012-9-11,80.6,69.2,60.8,70.7,61.2,53.8,83,76,69,30.00,29.90,11,3,0,0.00
2012-9-12,78.8,69.1,60.8,72.5,62.9,55.9,87,81,73,30.05,29.92,7,3,0,0.00
2012-9-13,82.4,68.6,60.8,72.9,62.1,54.6,90,80,68,30.02,29.89,7,2,0,0.00
2012-9-14,91.4,72.4,53.6,75.0,60.6,49.8,88,69,48,29.96,29.83,9,2,0,0.00
2012-9-15,96.8,76.9,62.6,70.5,57.5,49.3,70,53,33,29.96,29.84,7,2,0,0.00
2012-9-16,86.0,70.4,59.0,69.5,57.5,47.7,79,64,56,29.98,29.89,9,2,0,0.00
2012-9-17,78.8,65.9,55.4,70.7,59.1,49.3,87,79,69,30.01,29.89,9,2,0,0.00
2012-9-18,80.6,63.5,51.8,70.2,54.6,46.2,87,74,56,29.99,29.87,8,2,0,0.00
2012-9-19,84.2,66.1,51.8,68.6,54.9,45.5,82,69,53,29.96,29.82,10,2,0,0.00
2012-9-20,86.0,68.7,53.6,69.9,56.8,47.6,83,67,52,29.93,29.80,8,2,0,0.00
2012-9-21,87.8,69.2,53.6,72.2,57.8,47.6,82,68,55,29.90,29.76,8,2,0,0.00
2012-9-22,89.6,70.1,59.0,73.3,59.9,52.5,83,71,56,29.91,29.82,8,1,0,0.00
2012-9-23,87.8,71.0,57.2,74.1,59.5,51.7,86,69,48,29.93,29.87,9,2,0,0.00
2012-9-24,82.4,66.7,55.4,66.5,54.5,46.5,77,66,52,29.96,29.86,9,2,0,0.00
2012-9-25,77.0,62.4,53.6,68.1,54.6,47.2,84,76,66,29.93,29.80,7,2,0,0.00
2012-9-26,77.0,61.8,51.8,68.8,54.9,46.2,87,79,68,29.90,29.78,7,2,0,0.00
2012-9-27,80.6,64.6,51.8,70.7,57.7,47.7,88,79,68,29.93,29.82,9,2,0,0.00
2012-9-28,82.4,66.5,57.2,72.1,58.9,50.4,88,77,63,29.96,29.81,7,2,0,0.00
2012-9-29,86.0,66.4,53.6,71.9,57.1,49.2,87,73,56,29.97,29.87,9,2,0,0.00
2012-9-30,91.4,70.8,53.6,71.0,57.6,48.2,83,65,43,29.97,29.87,10,2,0,0.00
2012-10-1,89.6,68.8,55.4,62.0,51.5,46.2,72,55,40,29.92,29.78,7,1,0,0.00
2012-10-2,95.0,74.1,59.0,67.9,53.3,44.2,62,50,35,29.85,29.75,8,2,0,0.00
2012-10-3,78.8,65.0,53.6,66.0,54.2,42.9,77,68,62,30.04,29.84,9,2,0,0.00
2012-10-4,75.2,63.9,53.6,65.0,55.7,46.9,80,75,66,30.11,30.00,8,2,0,0.00
2012-10-5,77.0,63.5,51.8,68.5,55.9,47.2,86,77,65,30.09,29.88,9,2,0,0.00
2012-10-6,78.8,63.4,51.8,69.0,56.0,47.4,86,77,66,29.98,29.81,10,2,0,0.00
2012-10-7,80.6,63.8,53.6,69.4,56.3,48.3,88,77,66,29.94,29.83,8,2,0,0.00
2012-10-8,77.0,61.8,50.0,68.1,54.5,45.7,87,78,67,29.98,29.88,9,2,0,0.00
2012-10-9,75.2,62.2,50.0,67.1,55.2,46.0,88,78,67,29.99,29.88,9,2,0,0.00
2012-10-10,71.6,62.3,51.8,64.0,54.8,46.8,86,77,67,29.99,29.87,9,2,0,0.00
2012-10-11,69.8,57.4,51.8,63.3,51.5,46.5,87,81,71,29.95,29.86,7,1,0,0.13
2012-10-12,69.8,61.4,50.0,63.6,55.2,45.7,90,80,72,30.17,29.98,11,3,0,0.01
2012-10-13,78.8,61.4,50.0,68.2,53.7,45.7,88,76,64,30.20,30.00,7,2,0,0.00
2012-10-14,98.6,69.1,51.8,75.9,54.1,46.0,83,62,32,30.07,29.88,11,2,0,0.00
2012-10-15,93.2,70.3,55.4,69.0,53.1,42.6,64,55,39,29.95,29.81,8,2,0,0.00
2012-10-16,87.8,68.7,51.8,67.4,51.0,40.0,68,54,39,29.86,29.66,7,2,0,0.00
2012-10-17,96.8,72.3,55.4,74.6,52.8,41.7,67,52,39,29.79,29.68,7,2,0,0.00
2012-10-18,86.0,72.6,62.6,67.9,56.8,45.9,76,58,48,30.00,29.80,8,3,0,0.00
2012-10-19,75.2,64.7,55.4,67.5,58.0,50.3,85,79,73,30.01,29.83,8,2,0,0.00
2012-10-20,69.8,64.9,62.6,65.1,60.1,57.4,88,84,81,29.89,29.76,6,1,0,0.02
2012-10-21,75.2,64.3,59.0,67.1,58.5,52.1,88,82,72,29.91,29.80,8,2,0,0.00
2012-10-22,71.6,61.7,57.2,64.4,55.5,51.1,88,80,74,29.97,29.87,7,2,0,0.00
2012-10-23,71.6,59.7,50.0,62.9,51.8,43.8,87,76,63,29.97,29.86,9,2,0,0.00
2012-10-24,73.4,58.0,42.8,60.4,48.2,38.0,84,71,55,30.08,29.94,8,2,0,0.00
2012-10-25,80.6,61.0,44.6,62.3,47.8,35.4,74,63,49,30.11,29.91,10,2,0,0.00
2012-10-26,86.0,74.2,68.0,52.7,44.3,32.4,53,35,25,30.05,29.87,10,3,0,0.00
2012-10-27,96.8,75.0,59.0,50.4,39.0,29.3,43,28,19,29.92,29.78,8,3,0,0.00
2012-10-28,91.4,68.1,51.8,57.5,39.3,26.4,42,35,28,30.00,29.84,10,2,0,0.00
2012-10-29,55.4,55.4,55.4,32.1,32.1,32.1,41,41,41,30.09,29.97,9,2,0,0.00
2012-10-30,55.4,55.3,50.0,39.1,32.2,32.1,66,41,41,30.08,29.94,8,2,0,0.00
2012-10-31,71.6,57.1,41.0,60.0,47.7,33.4,77,71,65,30.08,29.93,8,2,0,0.00
2012-11-1,53.6,51.8,50.0,46.9,46.1,43.7,81,81,77,30.04,29.93,8,1,0,0.00
2012-11-2,69.8,58.1,51.8,61.9,50.8,44.1,85,77,68,30.02,29.90,9,2,0,0.00
2012-11-3,77.0,58.3,44.6,66.0,50.5,39.8,85,76,63,30.05,29.97,8,2,0,0.00
2012-11-4,95.0,67.5,46.4,68.5,47.9,36.6,78,54,24,30.09,29.94,7,2,0,0.00
2012-11-5,98.6,74.4,55.4,56.7,42.6,32.1,46,33,21,30.08,29.94,8,2,0,0.00
2012-11-6,86.0,64.1,50.0,56.7,43.7,31.6,69,49,36,30.07,29.95,6,2,0,0.00
2012-11-7,69.8,57.8,44.6,61.1,49.4,37.2,79,74,68,30.08,29.93,10,2,0,0.00
2012-11-8,60.8,57.5,51.8,54.9,52.0,47.4,86,82,78,30.00,29.82,7,1,0,0.05
2012-11-9,64.4,51.1,37.4,56.7,43.5,29.6,87,76,65,29.95,29.81,14,3,0,0.00
2012-11-10,62.6,47.7,35.6,51.1,37.5,26.4,79,68,59,30.18,29.95,12,2,0,0.00
2012-11-11,69.8,50.9,33.8,50.7,34.9,24.4,71,55,40,30.31,30.18,6,2,0,0.00
2012-11-12,78.8,59.9,46.4,44.9,32.4,20.3,46,36,29,30.30,30.11,8,2,0,0.00
2012-11-13,86.0,64.6,50.0,45.0,31.5,18.2,35,29,22,30.14,29.96,9,2,0,0.00
2012-11-14,82.4,60.8,48.2,44.5,32.8,21.3,52,36,24,30.07,29.97,7,2,0,0.00
2012-11-15,67.1,56.2,46.4,47.8,40.3,29.7,71,56,50,30.11,30.00,4,1,0,0.02
2012-11-16,68.4,57.5,48.6,56.1,47.7,40.0,75,70,62,30.13,29.98,3,1,0,0.05
2012-11-17,63.9,58.7,55.8,59.6,53.9,49.0,88,84,76,30.11,29.99,3,0,0,0.51
2012-11-18,67.1,58.3,52.0,61.9,53.7,46.7,91,85,76,30.18,30.07,10,2,0,0.07
2012-11-19,70.5,57.2,47.8,63.5,51.9,43.2,90,83,74,30.26,30.15,6,1,0,0.00
2012-11-20,70.3,56.7,43.9,62.1,50.3,40.3,89,80,69,30.18,30.02,6,2,0,0.00
2012-11-21,70.9,55.4,43.3,62.2,49.1,39.4,87,80,70,30.10,29.96,7,2,0,0.00
2012-11-22,68.9,54.0,43.7,62.8,48.9,39.8,88,83,77,30.12,30.00,8,2,0,0.00
2012-11-23,82.6,56.6,44.1,76.5,51.1,40.8,90,82,73,30.18,30.05,8,2,0,0.00
2012-11-24,78.1,60.8,47.5,65.0,50.8,40.0,80,70,62,30.09,29.90,7,2,0,0.00
2012-11-25,72.0,56.8,43.2,59.7,48.2,35.8,83,73,65,29.97,29.84,5,1,0,0.00
2012-11-26,68.0,55.9,45.5,60.5,50.4,41.0,87,82,75,30.12,29.97,6,1,0,0.00
2012-11-27,68.4,55.7,44.8,63.5,50.7,40.3,90,83,78,30.18,30.03,8,2,0,0.00
2012-11-28,68.2,57.3,46.6,62.5,53.0,42.9,91,86,77,30.21,30.11,5,1,0,0.23
2012-11-29,66.2,60.4,56.5,63.8,58.0,53.8,94,92,89,30.21,30.10,3,0,0,0.53
2012-11-30,67.5,61.0,56.8,66.3,59.2,54.5,96,94,92,30.15,29.99,4,1,0,0.42
2012-12-1,65.5,60.5,57.9,63.8,59.0,56.5,97,95,92,30.17,30.07,6,2,0,0.24
2012-12-2,65.5,60.3,57.9,64.6,59.2,57.1,97,96,95,30.12,30.04,6,2,0,0.43
2012-12-3,68.4,60.1,50.9,66.0,58.5,48.9,98,95,90,30.19,30.08,7,2,0,0.07
2012-12-4,64.6,55.4,47.8,62.6,53.8,46.4,97,94,92,30.27,30.12,5,1,0,0.01
2012-12-5,68.9,57.2,45.7,64.5,54.6,44.6,97,91,84,30.16,29.96,6,1,0,0.00
2012-12-6,68.4,56.6,47.8,65.5,54.3,45.6,96,92,87,30.01,29.83,6,2,0,0.00
2012-12-7,70.9,54.7,43.7,66.2,51.5,41.5,95,89,83,29.98,29.88,8,2,0,0.01
2012-12-8,66.9,50.7,37.0,62.2,47.1,34.3,91,88,83,29.99,29.84,6,1,0,0.00
2012-12-9,66.6,50.9,39.9,62.3,47.5,37.5,94,88,83,30.12,29.95,7,1,0,0.01
2012-12-10,78.1,57.2,42.3,63.5,48.6,37.7,91,74,55,30.16,30.02,7,2,0,0.00
2012-12-11,72.9,55.2,39.9,58.3,46.1,32.6,80,72,59,30.06,29.90,6,2,0,0.00
2012-12-12,61.2,54.0,49.3,55.3,49.1,43.7,88,84,78,29.97,29.80,5,1,0,0.12
2012-12-13,61.0,50.4,38.8,56.3,45.9,34.1,92,84,74,29.84,29.69,8,1,0,0.03
2012-12-14,57.0,45.7,35.2,51.2,39.7,31.2,87,80,72,30.01,29.77,7,1,0,0.11
2012-12-15,58.1,47.4,36.1,51.6,41.4,32.3,87,80,71,30.09,29.98,10,1,0,0.02
2012-12-16,55.6,50.5,46.8,52.4,46.6,41.6,91,86,80,30.18,30.07,4,0,0,0.11
2012-12-17,61.7,54.6,51.1,59.7,51.7,48.6,94,90,86,30.19,29.99,6,1,0,0.10
2012-12-18,63.1,52.8,37.4,59.3,47.1,28.2,94,81,65,30.06,29.79,9,2,0,0.36
2012-12-19,60.1,47.2,32.5,47.2,34.5,24.8,75,62,48,30.27,30.06,7,2,0,0.00
2012-12-20,66.2,53.3,42.1,42.7,31.3,20.1,47,43,40,30.26,30.08,7,2,0,0.00
2012-12-21,66.9,47.9,37.8,43.7,29.5,19.4,64,49,42,30.14,30.02,7,2,0,0.00
2012-12-22,60.6,47.2,34.2,49.2,37.8,24.8,81,70,63,30.18,30.08,5,1,0,0.21
2012-12-23,60.3,53.2,45.3,56.1,48.3,40.8,86,84,81,30.20,30.08,7,1,0,0.16
2012-12-24,63.7,53.4,43.3,60.1,49.8,40.0,90,88,85,30.10,29.96,6,1,0,1.10
2012-12-25,59.7,48.1,39.6,52.3,42.3,33.6,88,81,72,30.11,29.95,4,1,0,0.00
2012-12-26,61.7,50.2,39.4,56.3,44.4,33.8,88,81,74,29.99,29.88,6,2,0,0.14
2012-12-27,61.5,46.4,34.0,53.6,39.4,29.7,86,77,68,30.11,29.97,7,2,0,0.00
2012-12-28,64.0,49.0,37.9,50.3,37.8,28.7,71,66,57,30.17,30.04,7,1,0,0.00
2012-12-29,54.5,42.6,35.4,48.6,36.0,27.8,81,77,71,30.09,29.96,3,1,0,0.20
2012-12-30,58.8,42.9,31.6,51.1,36.2,27.0,85,77,68,30.10,29.89,6,1,0,0.00
2012-12-31,62.2,44.1,31.3,51.1,35.2,25.6,81,71,62,30.24,30.10,10,2,0,0.00
2013-1-1,62.2,46.7,33.8,47.7,34.1,26.4,77,62,48,30.26,30.07,5,2,0,0.00